createdAt,value
2023-04-22T00:01:32.472Z,51.00
2023-04-22T00:03:35.245Z,51.00
2023-04-22T00:05:37.863Z,51.00
2023-04-22T00:07:42.998Z,50.90
2023-04-22T00:09:45.853Z,50.90
2023-04-22T00:11:47.621Z,50.90
2023-04-22T00:13:49.346Z,51.60
2023-04-22T00:15:51.557Z,51.00
2023-04-22T00:17:53.871Z,51.00
2023-04-22T00:19:56.194Z,51.00
2023-04-22T00:21:57.837Z,51.00
2023-04-22T00:23:59.490Z,51.00
2023-04-22T00:26:01.369Z,51.00
2023-04-22T00:28:03.047Z,51.00
2023-04-22T00:30:06.119Z,51.00
2023-04-22T00:32:07.726Z,51.00
2023-04-22T00:34:09.346Z,50.90
2023-04-22T00:36:11.093Z,50.90
2023-04-22T00:38:13.063Z,50.90
2023-04-22T00:40:14.766Z,50.90
2023-04-22T00:42:17.022Z,50.90
2023-04-22T00:44:18.982Z,50.90
2023-04-22T00:46:21.038Z,50.90
2023-04-22T00:48:26.804Z,50.90
2023-04-22T00:50:30.546Z,50.90
2023-04-22T00:52:32.322Z,50.90
2023-04-22T00:54:36.455Z,50.80
2023-04-22T00:56:38.748Z,50.90
2023-04-22T00:58:41.095Z,50.80
2023-04-22T01:00:43.290Z,50.80
2023-04-22T01:02:45.069Z,50.80
2023-04-22T01:04:47.237Z,50.90
2023-04-22T01:06:51.469Z,50.90
2023-04-22T01:08:53.862Z,50.90
2023-04-22T01:10:57.206Z,50.90
2023-04-22T01:12:58.939Z,50.90
2023-04-22T01:15:04.271Z,50.80
2023-04-22T01:17:06.847Z,50.80
2023-04-22T01:19:08.822Z,50.90
2023-04-22T01:21:11.866Z,50.90
2023-04-22T01:23:21.302Z,51.00
2023-04-22T01:25:23.894Z,51.00
2023-04-22T01:27:26.114Z,50.90
2023-04-22T01:29:27.919Z,51.10
2023-04-22T01:31:30.504Z,51.60
2023-04-22T01:33:32.193Z,51.00
2023-04-22T01:35:37.138Z,51.00
2023-04-22T01:37:39.570Z,50.90
2023-04-22T01:39:41.636Z,50.90
2023-04-22T01:41:43.583Z,50.90
2023-04-22T01:43:45.459Z,50.90
2023-04-22T01:45:47.286Z,50.80
2023-04-22T01:47:48.970Z,50.90
2023-04-22T01:49:51.816Z,50.90
2023-04-22T01:51:53.852Z,50.90
2023-04-22T01:53:55.518Z,50.90
2023-04-22T01:55:57.177Z,50.90
2023-04-22T01:57:58.813Z,50.90
2023-04-22T02:00:00.571Z,50.90
2023-04-22T02:02:02.338Z,50.90
2023-04-22T02:04:04.051Z,50.90
2023-04-22T02:06:05.831Z,50.90
2023-04-22T02:08:07.530Z,50.80
2023-04-22T02:10:09.792Z,50.80
2023-04-22T02:12:11.554Z,50.80
2023-04-22T02:14:13.202Z,50.90
2023-04-22T02:16:14.866Z,51.00
2023-04-22T02:18:18.051Z,50.90
2023-04-22T02:20:19.713Z,50.90
2023-04-22T02:22:23.620Z,50.90
2023-04-22T02:24:25.515Z,51.00
2023-04-22T02:26:27.794Z,50.90
2023-04-22T02:28:29.565Z,50.90
2023-04-22T02:30:31.273Z,50.90
2023-04-22T02:32:33.094Z,50.90
2023-04-22T02:34:34.776Z,50.80
2023-04-22T02:36:36.524Z,50.90
2023-04-22T02:38:38.667Z,50.80
2023-04-22T02:40:40.434Z,50.80
2023-04-22T02:42:42.076Z,50.80
2023-04-22T02:44:43.711Z,50.90
2023-04-22T02:46:45.445Z,50.90
2023-04-22T02:48:47.290Z,50.90
2023-04-22T02:50:48.936Z,50.90
2023-04-22T02:52:51.256Z,51.60
2023-04-22T02:54:52.859Z,50.90
2023-04-22T02:56:54.474Z,50.90
2023-04-22T02:58:56.172Z,50.80
2023-04-22T03:00:58.158Z,50.80
2023-04-22T03:03:00.015Z,50.80
2023-04-22T03:05:01.933Z,50.70
2023-04-22T03:07:03.597Z,50.80
2023-04-22T03:09:05.731Z,50.80
2023-04-22T03:11:07.369Z,50.80
2023-04-22T03:13:09.062Z,50.90
2023-04-22T03:15:11.177Z,50.80
2023-04-22T03:17:12.774Z,50.80
2023-04-22T03:19:14.464Z,50.90
2023-04-22T03:21:16.221Z,50.80
2023-04-22T03:23:17.844Z,50.80
2023-04-22T03:25:19.572Z,50.80
2023-04-22T03:27:21.280Z,50.80
2023-04-22T03:29:22.955Z,51.40
2023-04-22T03:31:24.721Z,50.90
2023-04-22T03:33:26.435Z,50.80
2023-04-22T03:35:28.352Z,50.80
2023-04-22T03:37:30.034Z,50.80
2023-04-22T03:39:31.813Z,50.70
2023-04-22T03:41:33.470Z,50.70
2023-04-22T03:43:35.560Z,50.70
2023-04-22T03:45:37.544Z,50.80
2023-04-22T03:47:39.234Z,50.80
2023-04-22T03:49:41.544Z,50.80
2023-04-22T03:51:43.399Z,50.80
2023-04-22T03:53:45.117Z,50.80
2023-04-22T03:55:47.014Z,50.80
2023-04-22T03:57:48.609Z,50.80
2023-04-22T03:59:50.264Z,50.70
2023-04-22T04:01:53.764Z,50.80
2023-04-22T04:03:55.579Z,50.90
2023-04-22T04:05:57.539Z,51.00
2023-04-22T04:07:59.349Z,51.10
2023-04-22T04:10:01.031Z,51.00
2023-04-22T04:12:03.195Z,50.80
2023-04-22T04:14:04.834Z,50.60
2023-04-22T04:16:06.816Z,50.50
2023-04-22T04:18:09.623Z,50.50
2023-04-22T04:20:11.893Z,51.00
2023-04-22T04:22:14.951Z,50.30
2023-04-22T04:24:16.643Z,50.30
2023-04-22T04:26:18.309Z,50.20
2023-04-22T04:28:20.014Z,50.40
2023-04-22T04:30:21.858Z,50.40
2023-04-22T04:32:24.187Z,50.30
2023-04-22T04:34:25.866Z,50.60
2023-04-22T04:36:29.024Z,50.40
2023-04-22T04:38:30.801Z,50.50
2023-04-22T04:40:33.959Z,50.50
2023-04-22T04:42:35.832Z,50.50
2023-04-22T04:44:37.648Z,50.60
2023-04-22T04:46:39.481Z,50.70
2023-04-22T04:48:42.376Z,50.70
2023-04-22T04:50:44.362Z,50.70
2023-04-22T04:52:49.912Z,51.00
2023-04-22T04:54:51.601Z,50.80
2023-04-22T04:56:53.193Z,50.90
2023-04-22T04:58:54.813Z,50.80
2023-04-22T05:00:56.408Z,50.80
2023-04-22T05:02:58.138Z,50.70
2023-04-22T05:05:00.027Z,50.80
2023-04-22T05:07:01.909Z,50.80
2023-04-22T05:09:03.629Z,50.60
2023-04-22T05:11:05.525Z,50.60
2023-04-22T05:13:07.187Z,50.60
2023-04-22T05:15:09.228Z,50.60
2023-04-22T05:17:10.906Z,50.80
2023-04-22T05:19:13.661Z,50.60
2023-04-22T05:21:16.724Z,50.70
2023-04-22T05:23:18.418Z,50.60
2023-04-22T05:25:20.102Z,50.30
2023-04-22T05:27:21.732Z,50.20
2023-04-22T05:29:23.338Z,50.40
2023-04-22T05:31:25.100Z,50.30
2023-04-22T05:33:26.731Z,50.40
2023-04-22T05:35:28.408Z,50.20
2023-04-22T05:37:30.148Z,50.20
2023-04-22T05:39:31.940Z,50.30
2023-04-22T05:41:33.689Z,50.40
2023-04-22T05:43:35.370Z,50.50
2023-04-22T05:45:37.285Z,50.30
2023-04-22T05:47:39.203Z,50.40
2023-04-22T05:49:41.083Z,50.80
2023-04-22T05:51:43.337Z,51.40
2023-04-22T05:53:45.052Z,50.90
2023-04-22T05:55:46.738Z,50.80
2023-04-22T05:57:48.421Z,51.00
2023-04-22T05:59:50.201Z,50.50
2023-04-22T06:01:51.835Z,50.50
2023-04-22T06:03:53.644Z,50.60
2023-04-22T06:05:55.504Z,50.50
2023-04-22T06:07:57.240Z,50.50
2023-04-22T06:10:04.704Z,50.60
2023-04-22T06:12:07.743Z,50.70
2023-04-22T06:14:09.423Z,50.70
2023-04-22T06:16:11.305Z,50.80
2023-04-22T06:18:13.013Z,50.90
2023-04-22T06:20:15.068Z,50.80
2023-04-22T06:22:16.754Z,50.70
2023-04-22T06:24:18.412Z,50.80
2023-04-22T06:26:20.500Z,50.90
2023-04-22T06:28:22.162Z,50.90
2023-04-22T06:30:23.926Z,50.90
2023-04-22T06:32:25.748Z,50.80
2023-04-22T06:34:27.409Z,50.80
2023-04-22T06:36:30.567Z,50.80
2023-04-22T06:38:32.535Z,50.70
2023-04-22T06:40:34.140Z,50.70
2023-04-22T06:42:35.901Z,50.60
2023-04-22T06:44:37.661Z,50.40
2023-04-22T06:46:39.546Z,50.30
2023-04-22T06:48:41.299Z,50.50
2023-04-22T06:50:42.961Z,50.40
2023-04-22T06:52:44.634Z,50.20
2023-04-22T06:54:46.311Z,50.20
2023-04-22T06:56:48.320Z,50.10
2023-04-22T06:58:50.124Z,49.90
2023-04-22T07:00:51.782Z,49.10
2023-04-22T07:02:53.543Z,49.60
2023-04-22T07:04:55.436Z,49.70
2023-04-22T07:06:57.371Z,49.80
2023-04-22T07:08:59.048Z,49.90
2023-04-22T07:11:00.800Z,50.00
2023-04-22T07:13:02.662Z,50.20
2023-04-22T07:15:04.737Z,50.10
2023-04-22T07:17:06.340Z,50.20
2023-04-22T07:19:08.033Z,50.20
2023-04-22T07:21:09.667Z,50.20
2023-04-22T07:23:11.375Z,50.30
2023-04-22T07:25:13.110Z,50.30
2023-04-22T07:27:14.789Z,50.30
2023-04-22T07:29:16.483Z,50.30
2023-04-22T07:31:18.236Z,50.20
2023-04-22T07:33:20.004Z,50.30
2023-04-22T07:35:21.716Z,50.20
2023-04-22T07:37:23.435Z,50.10
2023-04-22T07:39:25.221Z,50.20
2023-04-22T07:41:26.922Z,50.10
2023-04-22T07:43:28.823Z,50.10
2023-04-22T07:45:30.538Z,50.00
2023-04-22T07:47:32.525Z,50.70
2023-04-22T07:49:34.291Z,50.00
2023-04-22T07:51:36.445Z,50.00
2023-04-22T07:53:38.059Z,50.00
2023-04-22T07:55:39.726Z,49.90
2023-04-22T07:57:41.424Z,49.90
2023-04-22T07:59:43.068Z,50.00
2023-04-22T08:01:46.502Z,49.90
2023-04-22T08:03:48.444Z,49.90
2023-04-22T08:05:50.490Z,49.90
2023-04-22T08:07:52.146Z,49.80
2023-04-22T08:09:55.963Z,49.80
2023-04-22T08:11:58.165Z,49.90
2023-04-22T08:13:59.846Z,49.80
2023-04-22T08:16:03.368Z,49.80
2023-04-22T08:18:05.267Z,50.00
2023-04-22T08:20:08.194Z,49.70
2023-04-22T08:22:09.961Z,49.70
2023-04-22T08:24:11.626Z,49.60
2023-04-22T08:26:15.192Z,49.70
2023-04-22T08:28:16.848Z,49.60
2023-04-22T08:30:19.199Z,49.70
2023-04-22T08:32:22.333Z,49.60
2023-04-22T08:34:26.072Z,49.60
2023-04-22T08:36:28.380Z,49.50
2023-04-22T08:38:30.020Z,49.60
2023-04-22T08:40:31.670Z,49.60
2023-04-22T08:42:33.462Z,49.30
2023-04-22T08:44:35.869Z,49.40
2023-04-22T08:46:39.159Z,49.40
2023-04-22T08:48:41.314Z,49.30
2023-04-22T08:50:42.984Z,49.10
2023-04-22T08:52:44.745Z,49.00
2023-04-22T08:54:46.509Z,49.10
2023-04-22T08:56:50.330Z,49.10
2023-04-22T08:58:52.629Z,49.20
2023-04-22T09:00:55.399Z,49.20
2023-04-22T09:03:01.003Z,49.20
2023-04-22T09:05:05.511Z,49.20
2023-04-22T09:07:07.708Z,49.40
2023-04-22T09:09:09.977Z,49.40
2023-04-22T09:11:11.787Z,49.80
2023-04-22T09:13:14.300Z,50.00
2023-04-22T09:15:16.305Z,50.70
2023-04-22T09:17:29.429Z,50.10
2023-04-22T09:19:31.074Z,50.10
2023-04-22T09:21:34.369Z,50.30
2023-04-22T09:23:51.858Z,49.80
2023-04-22T09:25:56.696Z,49.50
2023-04-22T09:27:59.731Z,49.60
2023-04-22T09:30:01.395Z,50.50
2023-04-22T09:32:10.898Z,50.30
2023-04-22T09:34:13.263Z,51.30
2023-04-22T09:36:15.063Z,50.70
2023-04-22T09:38:16.714Z,50.50
2023-04-22T09:40:20.181Z,50.70
2023-04-22T09:42:22.292Z,50.70
2023-04-22T09:44:27.791Z,50.80
2023-04-22T09:46:31.535Z,50.90
2023-04-22T09:48:33.219Z,51.50
2023-04-22T09:50:35.695Z,49.00
2023-04-22T09:52:37.293Z,43.60
2023-04-22T09:54:38.978Z,45.00
2023-04-22T09:56:52.100Z,41.90
2023-04-22T09:58:53.729Z,43.40
2023-04-22T10:00:57.823Z,42.70
2023-04-22T10:02:59.684Z,43.40
2023-04-22T10:05:01.510Z,42.80
2023-04-22T10:07:03.193Z,43.20
2023-04-22T10:09:06.513Z,43.80
2023-04-22T10:11:09.344Z,44.10
2023-04-22T10:13:11.139Z,44.10
2023-04-22T10:15:12.802Z,44.30
2023-04-22T10:17:15.386Z,44.20
2023-04-22T10:19:23.249Z,44.80
2023-04-22T10:21:26.723Z,44.30
2023-04-22T10:23:32.982Z,45.00
2023-04-22T10:25:34.663Z,44.00
2023-04-22T10:27:36.307Z,44.30
2023-04-22T10:29:40.838Z,45.70
2023-04-22T10:31:51.469Z,45.00
2023-04-22T10:34:13.494Z,45.60
2023-04-22T10:36:15.217Z,45.70
2023-04-22T10:38:16.833Z,44.60
2023-04-22T10:40:19.142Z,43.70
2023-04-22T10:42:21.840Z,43.60
2023-04-22T10:44:27.395Z,44.40
2023-04-22T10:46:36.984Z,43.20
2023-04-22T10:48:49.181Z,42.60
2023-04-22T10:50:52.899Z,43.90
2023-04-22T10:52:58.889Z,42.00
2023-04-22T10:55:01.357Z,42.40
2023-04-22T10:57:11.902Z,43.10
2023-04-22T10:59:17.192Z,43.20
2023-04-22T11:01:18.867Z,43.90
2023-04-22T11:03:27.881Z,43.80
2023-04-22T11:05:29.746Z,44.00
2023-04-22T11:07:34.114Z,44.80
2023-04-22T11:09:40.748Z,45.10
2023-04-22T11:11:42.671Z,45.40
2023-04-22T11:13:45.471Z,45.60
2023-04-22T11:15:49.865Z,45.70
2023-04-22T11:17:54.206Z,46.50
2023-04-22T11:19:57.500Z,45.90
2023-04-22T11:21:59.260Z,46.00
2023-04-22T11:24:06.145Z,45.90
2023-04-22T11:26:07.887Z,46.10
2023-04-22T11:28:10.541Z,46.20
2023-04-22T11:30:17.599Z,46.20
2023-04-22T11:32:21.313Z,46.10
2023-04-22T11:34:23.076Z,46.20
2023-04-22T11:36:24.813Z,46.20
2023-04-22T11:38:26.961Z,46.10
2023-04-22T11:40:33.179Z,46.20
2023-04-22T11:42:37.291Z,46.30
2023-04-22T11:44:39.663Z,46.30
2023-04-22T11:46:44.437Z,46.40
2023-04-22T11:48:46.390Z,46.50
2023-04-22T11:50:48.458Z,46.40
2023-04-22T11:53:01.269Z,46.40
2023-04-22T11:55:02.911Z,46.50
2023-04-22T11:57:08.243Z,46.50
2023-04-22T11:59:09.912Z,46.40
2023-04-22T12:01:13.860Z,46.40
2023-04-22T12:03:24.216Z,46.50
2023-04-22T12:05:36.435Z,46.60
2023-04-22T12:07:38.966Z,46.70
2023-04-22T12:09:41.187Z,46.60
2023-04-22T12:11:46.101Z,46.60
2023-04-22T12:13:47.788Z,46.70
2023-04-22T12:15:53.684Z,46.70
2023-04-22T12:17:55.485Z,46.70
2023-04-22T12:19:57.217Z,46.80
2023-04-22T12:21:58.876Z,46.70
2023-04-22T12:24:04.829Z,46.70
2023-04-22T12:26:06.556Z,46.80
2023-04-22T12:28:08.691Z,46.80
2023-04-22T12:30:10.902Z,46.80
2023-04-22T12:32:12.519Z,46.80
2023-04-22T12:34:14.180Z,46.90
2023-04-22T12:36:16.113Z,46.90
2023-04-22T12:38:17.842Z,46.90
2023-04-22T12:40:19.587Z,46.90
2023-04-22T12:42:21.253Z,47.00
2023-04-22T12:44:25.047Z,46.90
2023-04-22T12:46:26.919Z,46.90
2023-04-22T12:48:28.868Z,46.90
2023-04-22T12:50:30.621Z,46.90
2023-04-22T12:52:34.145Z,46.90
2023-04-22T12:54:35.752Z,46.90
2023-04-22T12:56:37.433Z,47.00
2023-04-22T12:58:39.233Z,47.10
2023-04-22T13:00:40.997Z,47.00
2023-04-22T13:02:43.905Z,47.10
2023-04-22T13:04:45.954Z,47.10
2023-04-22T13:06:50.383Z,47.10
2023-04-22T13:08:52.304Z,47.10
2023-04-22T13:10:54.121Z,47.10
2023-04-22T13:13:00.565Z,47.20
2023-04-22T13:15:12.076Z,47.20
2023-04-22T13:17:13.773Z,47.20
2023-04-22T13:19:15.581Z,47.20
2023-04-22T13:21:17.220Z,47.20
2023-04-22T13:23:21.535Z,47.20
2023-04-22T13:25:23.597Z,47.20
2023-04-22T13:27:26.017Z,47.20
2023-04-22T13:29:27.672Z,47.20
2023-04-22T13:31:29.406Z,47.30
2023-04-22T13:33:31.122Z,47.30
2023-04-22T13:35:32.824Z,47.30
2023-04-22T13:37:34.507Z,47.30
2023-04-22T13:39:36.157Z,47.30
2023-04-22T13:41:37.834Z,47.20
2023-04-22T13:43:39.478Z,47.30
2023-04-22T13:45:42.342Z,47.20
2023-04-22T13:47:44.175Z,47.20
2023-04-22T13:49:45.871Z,47.20
2023-04-22T13:51:47.649Z,47.20
2023-04-22T13:53:49.293Z,47.20
2023-04-22T13:55:50.897Z,47.20
2023-04-22T13:57:52.608Z,47.20
2023-04-22T13:59:54.253Z,47.10
2023-04-22T14:01:55.886Z,47.20
2023-04-22T14:03:57.663Z,47.20
2023-04-22T14:06:00.971Z,47.20
2023-04-22T14:08:02.661Z,47.20
2023-04-22T14:10:05.988Z,47.30
2023-04-22T14:12:08.754Z,47.30
2023-04-22T14:14:10.500Z,47.20
2023-04-22T14:16:12.562Z,47.30
2023-04-22T14:18:14.237Z,47.20
2023-04-22T14:20:15.967Z,46.90
2023-04-22T14:22:17.587Z,43.20
2023-04-22T14:24:19.504Z,41.20
2023-04-22T14:26:21.362Z,43.50
2023-04-22T14:28:23.160Z,44.10
2023-04-22T14:30:24.811Z,44.80
2023-04-22T14:32:27.089Z,46.40
2023-04-22T14:34:28.767Z,46.20
2023-04-22T14:36:31.172Z,46.10
2023-04-22T14:38:32.859Z,46.40
2023-04-22T14:40:34.619Z,46.50
2023-04-22T14:42:36.358Z,46.30
2023-04-22T14:44:38.054Z,46.40
2023-04-22T14:46:39.789Z,46.60
2023-04-22T14:48:41.479Z,46.60
2023-04-22T14:50:43.757Z,46.70
2023-04-22T14:52:45.447Z,46.70
2023-04-22T14:54:50.609Z,47.50
2023-04-22T14:56:55.573Z,47.10
2023-04-22T14:58:57.226Z,47.10
2023-04-22T15:00:59.909Z,47.10
2023-04-22T15:03:01.748Z,47.20
2023-04-22T15:05:03.876Z,47.20
2023-04-22T15:07:07.352Z,47.30
2023-04-22T15:09:09.178Z,47.30
2023-04-22T15:11:10.842Z,47.30
2023-04-22T15:13:12.553Z,47.40
2023-04-22T15:15:15.930Z,47.40
2023-04-22T15:17:18.798Z,47.40
2023-04-22T15:19:20.453Z,47.50
2023-04-22T15:21:22.109Z,47.50
2023-04-22T15:23:23.875Z,47.70
2023-04-22T15:25:27.244Z,47.60
2023-04-22T15:27:28.940Z,47.60
2023-04-22T15:29:32.149Z,47.70
2023-04-22T15:31:33.820Z,47.60
2023-04-22T15:33:35.761Z,47.60
2023-04-22T15:35:37.468Z,47.60
2023-04-22T15:37:39.356Z,47.60
2023-04-22T15:39:41.184Z,47.50
2023-04-22T15:41:44.051Z,47.60
2023-04-22T15:43:45.710Z,48.00
2023-04-22T15:45:47.420Z,47.80
2023-04-22T15:47:49.147Z,48.00
2023-04-22T15:49:50.919Z,48.00
2023-04-22T15:51:53.649Z,47.60
2023-04-22T15:53:59.371Z,48.60
2023-04-22T15:56:01.009Z,47.60
2023-04-22T15:58:02.661Z,47.60
2023-04-22T16:00:12.547Z,47.80
2023-04-22T16:02:15.422Z,47.90
2023-04-22T16:04:19.099Z,47.90
2023-04-22T16:06:20.995Z,47.90
2023-04-22T16:08:22.730Z,48.00
2023-04-22T16:10:26.197Z,47.90
2023-04-22T16:12:27.823Z,47.80
2023-04-22T16:14:29.460Z,47.80
2023-04-22T16:16:32.340Z,48.00
2023-04-22T16:18:34.092Z,48.30
2023-04-22T16:20:35.732Z,48.50
2023-04-22T16:22:37.421Z,48.50
2023-04-22T16:24:39.788Z,48.80
2023-04-22T16:26:43.114Z,48.80
2023-04-22T16:28:45.760Z,48.90
2023-04-22T16:30:47.447Z,49.00
2023-04-22T16:32:49.422Z,49.10
2023-04-22T16:34:51.189Z,48.40
2023-04-22T16:36:52.810Z,48.40
2023-04-22T16:38:54.505Z,48.60
2023-04-22T16:40:56.262Z,48.70
2023-04-22T16:43:03.160Z,48.90
2023-04-22T16:45:05.661Z,49.10
2023-04-22T16:47:07.321Z,49.10
2023-04-22T16:49:10.447Z,48.90
2023-04-22T16:51:12.240Z,48.90
2023-04-22T16:53:13.879Z,49.10
2023-04-22T16:55:15.721Z,49.10
2023-04-22T16:57:17.599Z,49.40
2023-04-22T16:59:19.191Z,49.40
2023-04-22T17:01:20.997Z,49.70
2023-04-22T17:03:22.908Z,49.80
2023-04-22T17:05:24.772Z,50.10
2023-04-22T17:07:26.437Z,50.10
2023-04-22T17:09:28.100Z,50.80
2023-04-22T17:11:32.265Z,50.90
2023-04-22T17:13:34.083Z,50.00
2023-04-22T17:15:36.035Z,45.90
2023-04-22T17:17:37.683Z,45.90
2023-04-22T17:19:39.480Z,46.80
2023-04-22T17:21:41.369Z,48.70
2023-04-22T17:23:45.727Z,49.40
2023-04-22T17:25:47.424Z,49.00
2023-04-22T17:27:49.087Z,49.10
2023-04-22T17:29:50.773Z,50.00
2023-04-22T17:31:52.560Z,50.00
2023-04-22T17:33:54.752Z,50.10
2023-04-22T17:35:56.711Z,50.20
2023-04-22T17:37:58.392Z,49.10
2023-04-22T17:40:00.065Z,47.80
2023-04-22T17:42:02.366Z,47.60
2023-04-22T17:44:04.098Z,47.30
2023-04-22T17:46:05.798Z,47.90
2023-04-22T17:48:07.478Z,47.60
2023-04-22T17:50:09.481Z,47.80
2023-04-22T17:52:11.372Z,47.80
2023-04-22T17:54:13.135Z,47.90
2023-04-22T17:56:14.731Z,48.00
2023-04-22T17:58:16.433Z,47.70
2023-04-22T18:00:19.002Z,47.80
2023-04-22T18:02:21.864Z,48.00
2023-04-22T18:04:23.687Z,48.10
2023-04-22T18:06:25.586Z,48.20
2023-04-22T18:08:27.445Z,48.20
2023-04-22T18:10:29.300Z,48.20
2023-04-22T18:12:31.216Z,48.10
2023-04-22T18:14:32.915Z,48.20
2023-04-22T18:16:34.589Z,47.10
2023-04-22T18:18:36.299Z,45.70
2023-04-22T18:20:38.030Z,46.00
2023-04-22T18:22:39.685Z,46.10
2023-04-22T18:24:41.608Z,46.70
2023-04-22T18:26:45.630Z,47.30
2023-04-22T18:28:47.308Z,47.80
2023-04-22T18:30:49.170Z,48.10
2023-04-22T18:32:51.584Z,48.20
2023-04-22T18:34:53.432Z,48.30
2023-04-22T18:36:55.248Z,48.50
2023-04-22T18:38:56.920Z,46.60
2023-04-22T18:40:58.723Z,45.40
2023-04-22T18:43:00.470Z,44.60
2023-04-22T18:45:04.524Z,44.70
2023-04-22T18:47:06.566Z,45.00
2023-04-22T18:49:08.169Z,45.80
2023-04-22T18:51:09.828Z,45.80
2023-04-22T18:53:11.642Z,46.10
2023-04-22T18:55:13.269Z,45.80
2023-04-22T18:57:14.863Z,46.50
2023-04-22T18:59:16.509Z,46.80
2023-04-22T19:01:18.258Z,47.00
2023-04-22T19:03:20.182Z,47.30
2023-04-22T19:05:21.999Z,47.30
2023-04-22T19:07:23.661Z,47.50
2023-04-22T19:09:25.430Z,47.60
2023-04-22T19:11:27.618Z,47.80
2023-04-22T19:13:30.397Z,47.90
2023-04-22T19:15:32.390Z,48.00
2023-04-22T19:17:35.000Z,48.20
2023-04-22T19:19:36.744Z,48.30
2023-04-22T19:21:39.620Z,48.40
2023-04-22T19:23:41.557Z,48.50
2023-04-22T19:25:43.484Z,48.50
2023-04-22T19:27:45.150Z,48.70
2023-04-22T19:29:51.321Z,48.80
2023-04-22T19:31:54.085Z,48.80
2023-04-22T19:33:55.824Z,48.80
2023-04-22T19:35:59.340Z,48.80
2023-04-22T19:38:01.443Z,48.80
2023-04-22T19:40:04.251Z,48.90
2023-04-22T19:42:06.186Z,48.90
2023-04-22T19:44:07.813Z,48.90
2023-04-22T19:46:09.491Z,48.90
2023-04-22T19:48:11.545Z,48.80
2023-04-22T19:50:13.759Z,48.90
2023-04-22T19:52:16.035Z,48.90
2023-04-22T19:54:20.746Z,48.80
2023-04-22T19:56:22.557Z,48.80
2023-04-22T19:58:24.532Z,48.80
2023-04-22T20:00:26.416Z,48.80
2023-04-22T20:02:28.567Z,48.70
2023-04-22T20:04:30.760Z,48.80
2023-04-22T20:06:33.799Z,48.80
2023-04-22T20:08:36.342Z,48.80
2023-04-22T20:10:38.279Z,48.80
2023-04-22T20:12:40.395Z,48.80
2023-04-22T20:14:43.112Z,48.70
2023-04-22T20:16:46.336Z,48.80
2023-04-22T20:18:48.270Z,48.70
2023-04-22T20:20:52.046Z,48.80
2023-04-22T20:22:55.014Z,48.90
2023-04-22T20:25:07.344Z,48.90
2023-04-22T20:27:09.122Z,49.00
2023-04-22T20:29:11.856Z,49.00
2023-04-22T20:31:14.964Z,49.10
2023-04-22T20:33:18.033Z,49.10
2023-04-22T20:35:20.589Z,49.20
2023-04-22T20:37:23.642Z,49.20
2023-04-22T20:39:26.594Z,49.20
2023-04-22T20:41:28.571Z,49.10
2023-04-22T20:43:30.997Z,49.20
2023-04-22T20:45:32.688Z,49.10
2023-04-22T20:47:35.814Z,49.10
2023-04-22T20:49:42.908Z,49.10
2023-04-22T20:51:44.542Z,49.10
2023-04-22T20:53:46.244Z,49.10
2023-04-22T20:55:48.146Z,49.00
2023-04-22T20:57:49.802Z,49.00
2023-04-22T20:59:51.921Z,49.00
2023-04-22T21:01:54.798Z,49.00
2023-04-22T21:03:58.008Z,49.10
2023-04-22T21:06:00.605Z,49.10
2023-04-22T21:08:04.568Z,49.20
2023-04-22T21:10:07.370Z,49.20
2023-04-22T21:12:10.655Z,49.30
2023-04-22T21:14:13.045Z,49.20
2023-04-22T21:16:18.001Z,49.30
2023-04-22T21:18:23.569Z,49.30
2023-04-22T21:20:27.073Z,49.40
2023-04-22T21:22:30.441Z,49.40
2023-04-22T21:24:33.381Z,49.30
2023-04-22T21:26:37.460Z,49.50
2023-04-22T21:28:39.559Z,49.40
2023-04-22T21:30:41.788Z,49.40
2023-04-22T21:32:43.494Z,49.40
2023-04-22T21:34:45.562Z,49.30
2023-04-22T21:36:47.632Z,49.40
2023-04-22T21:38:50.201Z,49.50
2023-04-22T21:40:51.880Z,49.50
2023-04-22T21:42:53.560Z,49.50
2023-04-22T21:44:56.118Z,49.60
2023-04-22T21:46:57.871Z,49.40
2023-04-22T21:48:59.888Z,49.40
2023-04-22T21:51:01.612Z,49.40
2023-04-22T21:53:03.348Z,49.40
2023-04-22T21:55:06.117Z,49.50
2023-04-22T21:57:07.835Z,49.50
2023-04-22T21:59:09.641Z,49.50
2023-04-22T22:01:11.255Z,49.50
2023-04-22T22:03:13.090Z,49.60
2023-04-22T22:05:15.816Z,49.60
2023-04-22T22:07:17.751Z,49.30
2023-04-22T22:09:19.470Z,49.60
2023-04-22T22:11:30.412Z,49.50
2023-04-22T22:13:33.914Z,50.20
2023-04-22T22:15:36.761Z,49.60
2023-04-22T22:17:40.048Z,49.50
2023-04-22T22:19:41.962Z,49.50
2023-04-22T22:21:43.706Z,49.60
2023-04-22T22:23:45.391Z,49.50
2023-04-22T22:25:47.986Z,49.60
2023-04-22T22:27:49.724Z,49.60
2023-04-22T22:29:51.378Z,49.60
2023-04-22T22:31:53.060Z,49.60
2023-04-22T22:33:55.104Z,49.60
2023-04-22T22:35:57.157Z,49.60
2023-04-22T22:37:59.168Z,49.60
2023-04-22T22:40:01.222Z,49.60
2023-04-22T22:42:02.948Z,49.60
2023-04-22T22:44:04.604Z,49.50
2023-04-22T22:46:06.270Z,49.60
2023-04-22T22:48:08.199Z,49.60
2023-04-22T22:50:10.987Z,49.60
2023-04-22T22:52:13.200Z,49.60
2023-04-22T22:54:14.923Z,49.60
2023-04-22T22:56:17.979Z,49.50
2023-04-22T22:58:19.638Z,49.50
2023-04-22T23:00:21.372Z,49.50
2023-04-22T23:02:23.171Z,49.50
2023-04-22T23:04:25.030Z,49.50
2023-04-22T23:06:27.228Z,49.60
2023-04-22T23:08:28.883Z,49.60
2023-04-22T23:10:30.806Z,49.50
2023-04-22T23:12:32.575Z,49.60
2023-04-22T23:14:35.090Z,49.40
2023-04-22T23:16:38.160Z,49.50
2023-04-22T23:18:40.869Z,49.30
2023-04-22T23:20:43.906Z,49.50
2023-04-22T23:22:47.807Z,49.40
2023-04-22T23:24:49.668Z,49.40
2023-04-22T23:26:51.606Z,49.50
2023-04-22T23:28:54.113Z,49.60
2023-04-22T23:30:57.146Z,49.50
2023-04-22T23:33:03.726Z,49.60
2023-04-22T23:35:07.795Z,49.50
2023-04-22T23:37:13.467Z,49.40
2023-04-22T23:39:15.140Z,49.40
2023-04-22T23:41:16.742Z,49.40
2023-04-22T23:43:18.362Z,49.50
2023-04-22T23:45:19.984Z,49.40
2023-04-22T23:47:21.659Z,49.40
2023-04-22T23:49:23.408Z,49.40
2023-04-22T23:51:25.079Z,49.50
2023-04-22T23:53:26.717Z,49.50
2023-04-22T23:55:28.676Z,49.50
2023-04-22T23:57:30.606Z,49.40
2023-04-22T23:59:32.710Z,49.40
